Time;durP1;ratioP1;P1;durP2;ratioP2;P2;SDS_P1;SDS_P2;PMS_P1;PMS_P2;Temp;Humidity;BMP_temperature;BMP_pressure;BME280_temperature;BME280_humidity;BME280_pressure;Samples;Min_cycle;Max_cycle;Signal;HPM_P1;HPM_P2
2023/10/19 00:00:48;;;;;;;20.50;12.50;;;;;;;4.45;75.04;99474.76;107312;1259;59509;-83
2023/10/19 00:03:18;;;;;;;19.60;13.60;;;;;;;4.36;75.39;99476.21;107468;1257;59640;-84
2023/10/19 00:05:46;;;;;;;19.90;12.50;;;;;;;4.30;75.68;99472.41;107294;1257;70662;-84
2023/10/19 00:10:42;;;;;;;20.20;13.10;;;;;;;4.31;75.57;99475.77;107324;1258;72807;-84
2023/10/19 00:13:13;;;;;;;17.90;12.90;;;;;;;4.33;75.47;99473.13;107249;1259;59963;-81
2023/10/19 00:15:47;;;;;;;17.50;13.00;;;;;;;4.27;75.71;99477.16;107110;1261;59525;-82
2023/10/19 00:23:13;;;;;;;20.30;13.80;;;;;;;4.13;76.26;99479.08;107155;1260;71253;-84
2023/10/19 00:25:44;;;;;;;19.50;12.90;;;;;;;4.21;76.26;99481.09;106556;1260;59628;-86
2023/10/19 00:28:14;;;;;;;20.10;13.20;;;;;;;4.19;76.21;99482.11;108078;1257;61183;-84
2023/10/19 00:30:42;;;;;;;18.40;13.80;;;;;;;4.13;76.27;99479.46;108336;1255;73134;-84
2023/10/19 00:33:19;;;;;;;19.20;14.30;;;;;;;4.08;76.58;99486.92;107202;1257;68818;-86
2023/10/19 00:35:59;;;;;;;21.50;14.20;;;;;;;4.03;76.66;99482.91;107710;1259;71239;-87
2023/10/19 00:38:27;;;;;;;23.60;14.00;;;;;;;4.10;76.87;99478.33;107369;1262;61199;-83
2023/10/19 00:40:59;;;;;;;19.30;13.30;;;;;;;4.12;76.58;99480.27;107758;1257;59610;-81
2023/10/19 00:43:28;;;;;;;20.80;14.10;;;;;;;4.07;76.80;99477.33;108062;1260;73133;-82
2023/10/19 00:45:56;;;;;;;20.70;13.60;;;;;;;4.03;76.94;99474.36;108586;1255;68882;-83
2023/10/19 00:48:26;;;;;;;20.90;13.50;;;;;;;4.02;77.00;99476.90;108904;1256;71647;-84
2023/10/19 00:51:01;;;;;;;22.40;13.60;;;;;;;4.10;76.99;99472.14;108468;1258;59600;-83
2023/10/19 00:53:30;;;;;;;18.60;14.30;;;;;;;4.16;76.86;99470.45;108356;1255;59499;-84
2023/10/19 00:56:00;;;;;;;24.20;14.20;;;;;;;4.15;76.81;99472.98;108844;1257;73122;-81
2023/10/19 00:58:30;;;;;;;20.40;14.20;;;;;;;4.13;76.69;99475.38;109250;1257;69091;-84
2023/10/19 01:00:59;;;;;;;18.90;14.70;;;;;;;4.13;76.86;99479.23;108783;1257;71200;-84
2023/10/19 01:03:32;;;;;;;17.10;12.40;;;;;;;4.24;76.59;99475.36;107817;1257;59702;-83
2023/10/19 01:05:59;;;;;;;17.10;13.60;;;;;;;4.30;76.40;99474.48;108557;1256;60343;-82
2023/10/19 01:08:34;;;;;;;17.60;13.10;;;;;;;4.26;76.04;99476.35;108810;1257;71765;-83
2023/10/19 01:11:11;;;;;;;18.40;14.40;;;;;;;4.22;76.43;99476.73;109185;1257;69027;-83
2023/10/19 01:13:44;;;;;;;19.80;13.80;;;;;;;4.18;76.36;99479.01;108835;1257;71084;-82
2023/10/19 01:16:20;;;;;;;19.30;14.10;;;;;;;4.20;76.32;99479.02;108690;1257;59695;-82
2023/10/19 01:18:53;;;;;;;19.90;13.90;;;;;;;4.26;76.30;99475.38;109189;1257;59499;-82
2023/10/19 01:21:27;;;;;;;19.70;15.20;;;;;;;4.20;76.41;99476.91;108837;1261;71566;-81
2023/10/19 01:23:54;;;;;;;20.10;14.30;;;;;;;4.11;76.54;99474.48;108547;1256;68813;-82
2023/10/19 01:26:22;;;;;;;21.10;15.00;;;;;;;4.04;76.93;99476.19;108365;1258;72516;-81
2023/10/19 01:28:51;;;;;;;16.20;12.60;;;;;;;4.06;76.82;99474.58;108149;1258;61068;-81
2023/10/19 01:31:22;;;;;;;17.50;12.30;;;;;;;4.10;76.78;99475.80;106431;1257;59611;-80
2023/10/19 01:33:50;;;;;;;22.00;14.70;;;;;;;4.05;76.95;99475.89;106752;1260;72873;-82
2023/10/19 01:36:26;;;;;;;19.60;14.30;;;;;;;3.98;76.77;99477.23;106310;1257;70020;-80
2023/10/19 01:39:00;;;;;;;22.40;15.30;;;;;;;3.91;77.25;99484.67;106478;1261;71165;-81
2023/10/19 01:41:27;;;;;;;20.00;14.00;;;;;;;3.88;77.26;99479.66;106628;1262;59802;-83
2023/10/19 01:43:54;;;;;;;19.20;14.80;;;;;;;3.95;77.35;99479.77;106929;1257;59644;-81
2023/10/19 01:46:24;;;;;;;19.30;14.90;;;;;;;3.94;77.25;99476.00;107554;1257;71704;-84
2023/10/19 01:48:56;;;;;;;17.00;14.00;;;;;;;3.90;77.40;99479.70;108063;1258;68937;-84
2023/10/19 01:51:24;;;;;;;18.40;13.70;;;;;;;3.86;77.55;99475.48;107842;1258;71190;-82
2023/10/19 01:53:51;;;;;;;18.00;13.50;;;;;;;3.83;77.65;99475.55;108603;1257;60365;-82
2023/10/19 01:56:17;;;;;;;19.30;13.30;;;;;;;3.92;77.70;99475.09;108826;1260;58993;-82
2023/10/19 01:58:48;;;;;;;20.20;14.70;;;;;;;3.98;77.55;99475.16;108711;1257;72253;-83
2023/10/19 02:03:59;;;;;;;21.50;14.30;;;;;;;3.92;77.50;99475.30;108618;1257;71228;-84
2023/10/19 02:06:28;;;;;;;19.20;13.60;;;;;;;3.91;77.77;99476.64;108840;1257;59703;-83
2023/10/19 02:09:00;;;;;;;15.40;13.20;;;;;;;4.01;77.36;99471.70;109091;1257;58947;-82
2023/10/19 02:11:28;;;;;;;17.00;13.20;;;;;;;4.10;77.52;99474.97;109223;1257;72536;-82
2023/10/19 02:13:59;;;;;;;20.30;13.90;;;;;;;4.10;77.32;99475.11;109229;1257;69016;-81
2023/10/19 02:16:29;;;;;;;21.20;13.90;;;;;;;4.10;77.11;99475.64;109316;1256;72029;-81
2023/10/19 02:18:56;;;;;;;22.40;14.70;;;;;;;4.10;77.08;99473.01;109169;1256;57970;-82
2023/10/19 02:21:26;;;;;;;18.00;13.40;;;;;;;4.13;77.07;99469.43;109294;1257;58861;-83
2023/10/19 02:23:53;;;;;;;21.20;13.20;;;;;;;4.27;76.85;99472.50;109265;1256;72548;-83
2023/10/19 02:26:26;;;;;;;22.50;14.60;;;;;;;4.34;76.38;99472.16;109041;1257;69143;-81
2023/10/19 02:28:56;;;;;;;19.00;14.50;;;;;;;4.33;76.26;99466.45;109238;1256;71072;-83
2023/10/19 02:31:23;;;;;;;17.00;14.20;;;;;;;4.32;76.12;99469.19;109097;1257;58110;-80
2023/10/19 02:33:58;;;;;;;19.30;13.90;;;;;;;4.27;76.36;99465.39;109270;1257;58847;-82
2023/10/19 02:36:30;;;;;;;23.20;14.00;;;;;;;4.34;76.19;99464.13;109257;1257;72528;-81
2023/10/19 02:39:07;;;;;;;17.80;14.10;;;;;;;4.36;75.93;99465.50;109283;1254;68881;-81
2023/10/19 02:41:39;;;;;;;20.70;15.40;;;;;;;4.33;76.09;99460.04;109176;1254;71167;-83
2023/10/19 02:44:22;;;;;;;22.80;15.00;;;;;;;4.29;76.23;99463.70;109184;1256;59061;-82
2023/10/19 02:46:58;;;;;;;22.50;15.10;;;;;;;4.24;76.29;99461.86;109126;1254;59017;-82
2023/10/19 02:49:30;;;;;;;17.60;13.20;;;;;;;4.22;76.43;99467.48;109178;1256;71597;-82
2023/10/19 02:52:05;;;;;;;20.10;14.10;;;;;;;4.28;76.13;99464.88;109240;1256;68881;-82
2023/10/19 02:54:35;;;;;;;21.10;15.40;;;;;;;4.25;76.36;99462.51;109056;1256;72022;-85
2023/10/19 02:57:06;;;;;;;21.00;14.70;;;;;;;4.17;76.50;99462.27;109210;1254;58092;-83
2023/10/19 02:59:33;;;;;;;25.60;17.40;;;;;;;4.12;76.91;99461.26;109215;1254;59170;-83
2023/10/19 03:04:41;;;;;;;18.00;13.80;;;;;;;4.20;76.64;99453.99;109416;1254;68718;-79
2023/10/19 03:07:09;;;;;;;18.40;14.40;;;;;;;4.18;76.80;99455.05;109334;1254;71931;-81
2023/10/19 03:09:36;;;;;;;18.90;15.60;;;;;;;4.10;76.61;99462.52;109299;1254;58148;-82
2023/10/19 03:12:04;;;;;;;24.50;15.20;;;;;;;4.04;77.08;99463.06;109194;1254;58924;-82
2023/10/19 03:14:32;;;;;;;19.40;13.30;;;;;;;4.01;77.18;99461.71;108982;1255;73748;-80
2023/10/19 03:17:00;;;;;;;29.80;22.20;;;;;;;4.06;77.05;99463.04;109225;1254;68735;-81
2023/10/19 03:19:28;;;;;;;21.10;14.90;;;;;;;4.00;77.26;99462.02;109309;1257;71507;-80
2023/10/19 03:21:55;;;;;;;22.70;17.30;;;;;;;3.88;77.48;99465.80;109291;1254;58300;-80
2023/10/19 03:24:37;;;;;;;19.60;14.90;;;;;;;3.79;77.76;99466.60;109238;1257;58849;-81
2023/10/19 03:27:16;;;;;;;21.20;15.60;;;;;;;3.80;77.98;99463.88;109288;1254;72984;-81
2023/10/19 03:29:59;;;;;;;41.00;28.40;;;;;;;3.76;77.95;99466.48;109247;1254;69226;-81
2023/10/19 03:32:27;;;;;;;29.40;20.30;;;;;;;3.64;78.42;99460.36;109416;1254;71398;-79
2023/10/19 03:34:55;;;;;;;23.10;15.50;;;;;;;3.53;78.47;99466.49;109116;1256;58103;-80
2023/10/19 03:37:24;;;;;;;20.60;16.60;;;;;;;3.50;78.68;99466.20;109134;1255;60320;-79
2023/10/19 03:39:58;;;;;;;21.60;15.50;;;;;;;3.52;78.83;99466.60;109092;1254;72549;-79
2023/10/19 03:42:39;;;;;;;21.20;16.40;;;;;;;3.44;79.04;99469.19;109177;1254;68800;-81
2023/10/19 03:45:13;;;;;;;22.70;17.30;;;;;;;3.33;79.42;99467.12;109385;1254;71147;-79
2023/10/19 03:47:43;;;;;;;22.90;16.60;;;;;;;3.27;79.71;99471.50;109101;1256;59635;-81
2023/10/19 03:50:15;;;;;;;24.60;17.30;;;;;;;3.32;79.53;99471.09;109135;1255;60316;-81
2023/10/19 03:52:42;;;;;;;24.10;18.10;;;;;;;3.27;79.97;99473.80;109078;1254;72648;-78
2023/10/19 03:55:15;;;;;;;24.80;17.60;;;;;;;3.16;80.12;99468.91;108969;1254;68975;-80
2023/10/19 03:57:46;;;;;;;25.50;17.10;;;;;;;3.07;80.27;99466.84;107585;1254;71237;-79
2023/10/19 04:00:16;;;;;;;22.90;16.90;;;;;;;3.10;80.53;99461.73;107357;1254;60859;-78
2023/10/19 04:02:43;;;;;;;21.40;16.10;;;;;;;3.13;80.51;99466.91;107877;1254;61136;-78
2023/10/19 04:05:20;;;;;;;23.00;16.80;;;;;;;3.04;80.88;99461.36;105952;1260;73712;-83
2023/10/19 04:07:49;;;;;;;23.00;17.00;;;;;;;2.94;81.25;99460.27;106299;1257;68930;-82
2023/10/19 04:13:01;;;;;;;25.80;17.70;;;;;;;2.97;81.33;99462.25;106245;1258;60548;-82
2023/10/19 04:15:35;;;;;;;22.80;17.40;;;;;;;2.89;81.71;99458.38;105954;1254;60450;-80
2023/10/19 04:18:09;;;;;;;25.80;17.30;;;;;;;2.80;82.01;99457.20;106147;1257;73601;-80
2023/10/19 04:23:21;;;;;;;23.70;17.00;;;;;;;2.84;82.32;99464.73;105951;1257;72697;-83
2023/10/19 04:25:47;;;;;;;22.30;17.00;;;;;;;2.77;82.16;99467.02;106257;1258;60546;-81
2023/10/19 04:28:15;;;;;;;25.80;16.90;;;;;;;2.70;82.30;99465.29;106147;1254;60543;-83
2023/10/19 04:30:41;;;;;;;22.80;16.80;;;;;;;2.74;82.45;99466.92;106221;1254;73639;-84
2023/10/19 04:33:11;;;;;;;22.10;17.40;;;;;;;2.78;82.39;99467.84;107730;1254;67967;-83
2023/10/19 04:35:37;;;;;;;25.40;19.60;;;;;;;2.73;82.53;99465.80;106727;1254;71128;-84
2023/10/19 04:38:06;;;;;;;26.10;18.20;;;;;;;2.67;82.71;99465.77;106545;1257;60852;-82
2023/10/19 04:40:33;;;;;;;27.90;17.50;;;;;;;2.69;82.61;99467.54;106454;1254;60466;-81
2023/10/19 04:43:03;;;;;;;25.20;17.00;;;;;;;2.74;82.45;99474.09;106924;1256;73806;-83
2023/10/19 04:45:29;;;;;;;23.90;17.80;;;;;;;2.68;82.63;99474.79;106670;1259;70572;-82
2023/10/19 04:47:56;;;;;;;27.00;18.40;;;;;;;2.62;82.64;99470.56;107654;1257;58867;-82
2023/10/19 04:50:22;;;;;;;25.00;17.70;;;;;;;2.65;82.82;99471.71;106267;1254;60402;-83
2023/10/19 04:52:49;;;;;;;26.60;18.80;;;;;;;2.65;82.76;99472.40;105947;1259;60938;-75
2023/10/19 04:55:16;;;;;;;23.90;17.60;;;;;;;2.59;83.07;99476.20;105819;1254;73607;-76
2023/10/19 04:57:43;;;;;;;27.70;17.10;;;;;;;2.58;83.13;99478.16;105843;1257;70289;-75
2023/10/19 05:00:13;;;;;;;21.40;17.60;;;;;;;2.66;82.67;99480.19;105832;1254;72583;-75
2023/10/19 05:02:41;;;;;;;27.50;20.10;;;;;;;2.66;82.71;99481.73;105984;1255;60281;-75
2023/10/19 05:05:09;;;;;;;24.30;18.00;;;;;;;2.62;82.71;99488.04;106116;1257;60566;-75
2023/10/19 05:07:35;;;;;;;25.80;17.90;;;;;;;2.60;83.10;99492.05;105880;1260;75152;-73
2023/10/19 05:10:05;;;;;;;27.80;19.20;;;;;;;2.69;82.83;99486.19;105532;1254;70190;-74
2023/10/19 05:12:32;;;;;;;24.00;18.20;;;;;;;2.77;82.55;99489.40;105806;1255;72514;-74
2023/10/19 05:14:58;;;;;;;30.80;20.70;;;;;;;2.77;82.42;99486.86;105694;1259;60517;-75
2023/10/19 05:17:27;;;;;;;26.80;19.50;;;;;;;2.76;82.50;99481.59;105662;1259;60354;-75
2023/10/19 05:19:54;;;;;;;25.70;18.30;;;;;;;2.87;82.15;99481.95;105879;1260;72666;-74
2023/10/19 05:22:21;;;;;;;26.60;21.50;;;;;;;2.98;81.94;99487.40;105854;1254;70063;-71
2023/10/19 05:24:48;;;;;;;25.70;19.40;;;;;;;3.00;81.77;99489.13;105806;1259;72703;-73
2023/10/19 05:27:15;;;;;;;25.70;19.30;;;;;;;3.02;81.52;99491.08;105573;1257;60571;-76
2023/10/19 05:29:43;;;;;;;26.90;20.80;;;;;;;3.15;81.19;99493.66;105747;1260;60680;-75
2023/10/19 05:32:10;;;;;;;34.50;22.20;;;;;;;3.27;80.78;99491.83;105845;1259;73950;-75
2023/10/19 05:34:37;;;;;;;31.30;21.80;;;;;;;3.32;80.75;99494.36;105949;1254;70164;-75
2023/10/19 05:37:05;;;;;;;26.50;20.50;;;;;;;3.38;80.45;99497.92;105798;1258;72663;-72
2023/10/19 05:39:33;;;;;;;29.10;21.20;;;;;;;3.43;80.34;99500.24;105842;1254;61189;-74
2023/10/19 05:42:04;;;;;;;26.30;19.40;;;;;;;3.58;79.70;99498.33;105910;1259;60427;-74
2023/10/19 05:44:30;;;;;;;28.30;20.20;;;;;;;3.67;79.33;99498.76;105856;1258;73650;-75
2023/10/19 05:47:02;;;;;;;26.00;19.00;;;;;;;3.69;79.05;99502.97;105853;1254;69161;-75
2023/10/19 05:49:32;;;;;;;30.90;19.60;;;;;;;3.70;78.71;99502.07;105938;1254;72547;-75
2023/10/19 05:51:58;;;;;;;25.20;18.80;;;;;;;3.76;78.80;99503.43;105804;1255;60504;-75
2023/10/19 05:54:26;;;;;;;27.80;19.30;;;;;;;3.91;78.57;99505.99;105709;1254;60533;-76
2023/10/19 05:56:53;;;;;;;33.30;21.10;;;;;;;3.97;78.04;99506.22;105890;1259;73809;-76
2023/10/19 05:59:20;;;;;;;26.80;21.20;;;;;;;3.99;77.95;99507.84;105688;1257;70078;-75
2023/10/19 06:01:47;;;;;;;23.10;18.50;;;;;;;3.99;77.40;99515.21;105747;1257;72828;-75
2023/10/19 06:04:14;;;;;;;30.60;19.30;;;;;;;4.01;77.52;99519.52;105811;1254;60969;-74
2023/10/19 06:06:43;;;;;;;22.90;17.70;;;;;;;4.12;77.21;99515.66;105821;1254;60513;-76
2023/10/19 06:09:10;;;;;;;25.50;20.40;;;;;;;4.18;76.90;99518.97;105830;1254;72419;-76
2023/10/19 06:11:38;;;;;;;29.80;21.90;;;;;;;4.16;76.55;99517.27;105858;1254;68827;-73
2023/10/19 06:14:07;;;;;;;27.30;19.50;;;;;;;4.13;76.83;99518.35;105870;1254;72928;-76
2023/10/19 06:16:34;;;;;;;26.40;20.10;;;;;;;4.16;76.76;99518.48;105814;1254;61080;-72
2023/10/19 06:19:01;;;;;;;29.70;22.00;;;;;;;4.24;76.36;99519.88;105712;1254;60596;-75
2023/10/19 06:21:28;;;;;;;30.70;21.80;;;;;;;4.22;76.29;99519.49;105914;1259;72724;-76
2023/10/19 06:23:55;;;;;;;31.30;21.50;;;;;;;4.19;76.55;99521.70;105811;1254;69240;-73
2023/10/19 06:26:21;;;;;;;33.50;20.60;;;;;;;4.18;76.46;99521.77;105780;1254;72696;-76
2023/10/19 06:28:50;;;;;;;30.20;21.60;;;;;;;4.29;76.29;99520.71;105815;1254;61285;-75
2023/10/19 06:31:17;;;;;;;33.20;23.00;;;;;;;4.37;76.09;99514.59;105747;1257;60400;-76
2023/10/19 06:33:44;;;;;;;31.30;21.40;;;;;;;4.37;76.20;99518.08;105692;1257;73527;-75
2023/10/19 06:36:10;;;;;;;30.20;20.80;;;;;;;4.37;75.87;99514.90;105720;1259;68853;-76
2023/10/19 06:38:37;;;;;;;27.70;20.50;;;;;;;4.40;76.24;99511.50;105728;1258;72486;-76
2023/10/19 06:41:13;;;;;;;27.30;19.40;;;;;;;4.55;75.90;99512.78;105694;1257;60546;-77
2023/10/19 06:43:40;;;;;;;25.50;19.50;;;;;;;4.65;75.63;99509.63;105776;1257;60431;-74
2023/10/19 06:46:11;;;;;;;30.40;22.20;;;;;;;4.70;75.27;99507.45;105747;1259;73581;-76
2023/10/19 06:48:38;;;;;;;28.90;22.70;;;;;;;4.72;75.06;99508.79;105826;1254;70110;-76
2023/10/19 06:51:05;;;;;;;31.70;21.80;;;;;;;4.75;74.94;99503.84;105816;1254;72753;-74
2023/10/19 06:53:32;;;;;;;34.10;22.50;;;;;;;4.86;74.60;99502.52;105777;1258;60524;-76
2023/10/19 06:56:00;;;;;;;35.00;24.00;;;;;;;4.99;74.24;99501.75;105877;1254;60412;-76
2023/10/19 06:58:27;;;;;;;31.10;23.10;;;;;;;5.03;74.21;99499.43;105925;1258;73545;-74
2023/10/19 07:00:56;;;;;;;30.40;22.60;;;;;;;5.08;74.06;99497.05;105753;1257;70320;-74
2023/10/19 07:03:23;;;;;;;32.60;24.20;;;;;;;5.16;73.95;99496.66;105967;1254;70484;-76
2023/10/19 07:05:52;;;;;;;28.70;23.30;;;;;;;5.24;73.58;99493.15;106092;1259;60434;-76
2023/10/19 07:08:20;;;;;;;33.50;23.10;;;;;;;5.38;73.22;99492.20;105911;1255;60425;-77
2023/10/19 07:10:49;;;;;;;27.00;21.30;;;;;;;5.57;72.94;99495.95;105812;1259;73790;-76
2023/10/19 07:13:16;;;;;;;29.60;23.30;;;;;;;5.65;72.05;99495.11;105784;1258;70096;-72
2023/10/19 07:15:45;;;;;;;29.40;21.70;;;;;;;5.70;71.83;99492.38;105918;1257;73571;-77
2023/10/19 07:18:13;;;;;;;36.90;24.40;;;;;;;5.76;71.62;99493.64;105906;1255;60558;-76
2023/10/19 07:20:42;;;;;;;37.80;27.50;;;;;;;5.81;71.60;99492.79;105876;1254;60566;-78
2023/10/19 07:23:18;;;;;;;38.80;26.40;;;;;;;5.86;71.28;99493.56;105829;1259;73788;-76
2023/10/19 07:25:47;;;;;;;33.10;23.30;;;;;;;5.95;71.20;99491.66;105889;1254;70515;-73
2023/10/19 07:28:15;;;;;;;28.20;21.60;;;;;;;6.09;70.65;99492.51;105816;1258;71207;-75
2023/10/19 07:30:43;;;;;;;34.70;25.50;;;;;;;6.28;70.06;99488.20;105851;1254;60436;-77
2023/10/19 07:33:11;;;;;;;33.20;23.70;;;;;;;6.37;69.62;99484.50;105851;1254;60658;-74
2023/10/19 07:35:38;;;;;;;29.60;23.90;;;;;;;6.43;69.33;99490.84;105766;1254;72675;-75
2023/10/19 07:38:07;;;;;;;29.80;22.70;;;;;;;6.47;68.96;99486.67;105880;1257;69909;-74
2023/10/19 07:40:35;;;;;;;33.60;25.00;;;;;;;6.52;68.70;99484.73;105826;1259;72991;-76
2023/10/19 07:43:03;;;;;;;34.20;23.60;;;;;;;6.57;68.41;99488.65;105868;1254;60543;-82
2023/10/19 08:39:43;;;;;;;17.10;13.80;;;;;;;9.97;58.44;99455.48;106432;1257;70485;-82
2023/10/19 08:42:10;;;;;;;21.10;14.20;;;;;;;10.05;58.32;99451.80;107380;1254;72808;-83
2023/10/19 08:44:38;;;;;;;18.80;14.60;;;;;;;10.12;58.14;99445.63;108460;1254;60390;-84
2023/10/19 08:47:05;;;;;;;24.80;16.10;;;;;;;10.27;57.64;99450.23;107394;1254;60480;-84
2023/10/19 08:49:32;;;;;;;18.60;14.40;;;;;;;10.42;57.21;99452.94;107197;1252;71513;-84
2023/10/19 08:51:59;;;;;;;16.20;13.70;;;;;;;10.60;56.65;99456.86;106836;1253;69121;-83
2023/10/19 08:54:27;;;;;;;15.40;12.40;;;;;;;10.77;55.92;99455.35;106506;1254;73387;-85
2023/10/19 08:56:55;;;;;;;15.40;13.10;;;;;;;10.93;55.60;99456.86;106732;1253;60498;-82
2023/10/19 08:59:23;;;;;;;14.70;12.20;;;;;;;11.14;55.03;99462.42;107555;1256;61521;-83
2023/10/19 09:01:50;;;;;;;13.10;11.70;;;;;;;11.40;53.87;99463.83;107415;1254;71394;-84
2023/10/19 09:04:17;;;;;;;16.60;13.80;;;;;;;11.54;53.16;99463.53;106781;1253;70355;-83
2023/10/19 09:06:45;;;;;;;18.40;13.60;;;;;;;11.66;52.73;99463.40;107601;1253;72532;-83
2023/10/19 09:09:21;;;;;;;17.60;13.30;;;;;;;11.85;52.13;99461.77;107272;1254;60406;-84
2023/10/19 09:11:48;;;;;;;17.50;14.00;;;;;;;12.12;52.23;99454.95;106865;1253;60351;-84
2023/10/19 09:14:17;;;;;;;19.30;15.40;;;;;;;12.45;51.60;99453.46;106440;1253;73797;-84
2023/10/19 09:16:57;;;;;;;15.70;14.10;;;;;;;12.80;50.49;99447.94;106474;1254;70703;-85
2023/10/19 09:19:47;;;;;;;15.40;12.50;;;;;;;13.15;49.54;99437.02;106195;1254;72598;-85
2023/10/19 09:22:22;;;;;;;17.00;13.60;;;;;;;13.47;48.80;99437.10;106507;1254;60411;-85
2023/10/19 09:24:49;;;;;;;13.00;11.60;;;;;;;13.72;47.97;99441.28;106569;1254;60347;-84
2023/10/19 09:27:17;;;;;;;13.40;11.70;;;;;;;13.83;47.31;99440.98;106399;1253;73842;-85
2023/10/19 09:29:45;;;;;;;20.90;14.70;;;;;;;13.83;47.03;99445.96;106520;1253;70425;-82
2023/10/19 09:32:13;;;;;;;15.90;14.30;;;;;;;13.88;46.97;99440.98;106588;1254;72613;-86
2023/10/19 09:34:43;;;;;;;15.80;14.20;;;;;;;14.05;47.01;99433.30;106468;1253;60396;-85
2023/10/19 09:37:11;;;;;;;14.70;12.50;;;;;;;14.21;46.42;99434.27;106834;1254;60516;-85
2023/10/19 09:39:38;;;;;;;14.30;11.70;;;;;;;14.21;46.23;99435.50;108680;1254;72565;-85
2023/10/19 09:42:11;;;;;;;11.90;10.70;;;;;;;14.12;46.06;99432.89;108512;1253;70455;-85
2023/10/19 09:44:41;;;;;;;14.90;12.40;;;;;;;14.03;46.42;99436.05;107258;1253;72544;-85
2023/10/19 09:47:19;;;;;;;14.70;11.90;;;;;;;13.96;46.38;99430.22;107115;1253;60518;-83
2023/10/19 09:49:49;;;;;;;14.40;12.70;;;;;;;13.97;46.46;99433.63;106994;1253;200449;-83
2023/10/19 09:55:19;;;;;;;10.40;9.40;;;;;;;14.04;46.34;99419.31;105622;1292;599996;-84
2023/10/19 09:58:14;;;;;;;11.50;10.40;;;;;;;14.26;45.56;99423.52;107212;1257;60257;-83
2023/10/19 10:00:49;;;;;;;12.70;11.40;;;;;;;14.12;45.49;99421.90;108038;1257;60299;-83
2023/10/19 10:03:43;;;;;;;10.20;8.60;;;;;;;14.08;46.11;99416.05;107803;1258;72259;-85
2023/10/19 10:06:12;;;;;;;10.50;9.10;;;;;;;14.21;45.53;99406.42;106301;1260;71619;-83
2023/10/19 10:08:39;;;;;;;14.80;10.20;;;;;;;14.44;45.06;99407.34;106295;1254;188251;-84
2023/10/19 10:11:16;;;;;;;10.30;9.20;;;;;;;14.63;44.85;99405.33;106420;1256;59308;-83
2023/10/19 10:13:45;;;;;;;12.50;9.20;;;;;;;14.78;44.42;99403.05;106742;1256;59362;-83
2023/10/19 10:16:15;;;;;;;11.50;9.20;;;;;;;14.96;44.46;99407.09;106924;1254;72003;-83
2023/10/19 10:18:44;;;;;;;10.40;9.30;;;;;;;15.15;43.57;99409.83;106746;1254;69252;-83
2023/10/19 10:21:12;;;;;;;10.40;8.60;;;;;;;15.20;43.52;99396.23;106660;1254;73531;-83
2023/10/19 10:23:43;;;;;;;9.80;8.70;;;;;;;15.24;43.27;99395.29;106992;1254;60424;-81
2023/10/19 10:26:14;;;;;;;11.00;9.00;;;;;;;15.23;43.09;99395.36;107207;1253;59654;-88
2023/10/19 10:28:41;;;;;;;10.70;8.90;;;;;;;15.15;43.06;99390.11;106739;1254;72943;-78
2023/10/19 10:31:20;;;;;;;9.30;8.30;;;;;;;15.19;43.38;99390.93;106199;1254;70445;-85
2023/10/19 10:33:49;;;;;;;11.80;9.10;;;;;;;15.21;43.04;99384.25;106549;1254;72110;-84
2023/10/19 10:36:19;;;;;;;10.40;9.30;;;;;;;15.33;43.33;99379.88;106387;1257;61414;-81
2023/10/19 10:38:50;;;;;;;12.20;10.10;;;;;;;15.63;42.60;99375.51;106343;1254;60402;-84
2023/10/19 10:41:21;;;;;;;13.80;8.00;;;;;;;15.87;41.98;99376.73;106867;1254;73366;-85
2023/10/19 10:43:53;;;;;;;9.20;8.30;;;;;;;15.91;41.69;99369.88;108187;1253;69442;-83
2023/10/19 10:46:21;;;;;;;9.80;8.00;;;;;;;15.80;41.32;99374.09;107575;1257;71578;-81
2023/10/19 10:48:48;;;;;;;9.30;8.30;;;;;;;15.55;41.23;99375.81;108463;1254;60502;-84
2023/10/19 10:51:28;;;;;;;9.50;7.60;;;;;;;15.37;41.57;99374.15;106536;1259;61332;-83
2023/10/19 10:53:56;;;;;;;9.80;7.80;;;;;;;15.32;41.80;99373.54;106426;1260;71735;-84
2023/10/19 10:56:23;;;;;;;10.80;8.50;;;;;;;15.27;41.84;99366.84;106477;1260;69192;-84
2023/10/19 10:58:50;;;;;;;12.20;9.40;;;;;;;15.21;42.04;99375.45;106350;1259;73905;-84
2023/10/19 11:01:32;;;;;;;9.20;8.20;;;;;;;15.20;42.33;99364.91;106381;1254;60256;-89
2023/10/19 11:04:07;;;;;;;12.70;11.50;;;;;;;15.38;41.98;99362.61;108813;1257;59869;-85
2023/10/19 11:06:48;;;;;;;10.20;9.10;;;;;;;15.47;41.68;99366.05;108909;1253;73481;-85
2023/10/19 11:09:19;;;;;;;10.00;9.00;;;;;;;15.43;41.88;99353.19;108299;1254;70451;-85
2023/10/19 11:11:46;;;;;;;9.50;8.10;;;;;;;15.43;41.75;99360.31;106729;1259;71366;-79
2023/10/19 11:14:13;;;;;;;8.80;7.90;;;;;;;15.40;41.80;99352.77;106656;1258;59818;-84
2023/10/19 11:16:40;;;;;;;9.10;8.20;;;;;;;15.41;42.13;99356.85;106163;1259;59601;-83
2023/10/19 11:19:09;;;;;;;10.90;9.00;;;;;;;15.45;42.13;99355.04;107031;1253;71641;-79
2023/10/19 11:21:36;;;;;;;12.10;9.80;;;;;;;15.57;41.98;99355.05;106436;1256;69149;-82
2023/10/19 11:24:03;;;;;;;13.30;10.20;;;;;;;15.57;42.06;99352.73;106099;1259;72727;-79
2023/10/19 11:26:30;;;;;;;10.90;9.20;;;;;;;15.53;42.31;99341.84;106335;1254;61602;-82
2023/10/19 11:29:04;;;;;;;10.00;8.60;;;;;;;15.57;42.16;99350.92;106373;1254;59721;-77
2023/10/19 11:31:37;;;;;;;13.20;9.30;;;;;;;15.55;42.30;99342.60;108117;1258;73022;-82
2023/10/19 11:34:04;;;;;;;11.60;9.40;;;;;;;15.56;42.63;99335.56;106297;1255;70358;-83
2023/10/19 11:36:34;;;;;;;11.50;9.20;;;;;;;15.60;42.81;99331.36;106008;1254;72702;-83
2023/10/19 11:39:04;;;;;;;10.60;9.50;;;;;;;15.54;42.86;99329.59;106396;1259;59666;-76
2023/10/19 11:41:31;;;;;;;12.90;10.20;;;;;;;15.43;42.89;99328.39;105875;1259;60341;-81
2023/10/19 11:43:58;;;;;;;11.50;10.30;;;;;;;15.31;43.13;99321.05;105765;1254;73223;-77
2023/10/19 11:46:25;;;;;;;13.10;10.30;;;;;;;15.35;43.39;99317.16;105901;1259;69768;-84
2023/10/19 11:48:52;;;;;;;11.40;9.60;;;;;;;15.50;43.05;99311.00;106004;1256;72704;-82
2023/10/19 11:51:19;;;;;;;12.20;10.10;;;;;;;15.54;43.01;99313.02;105821;1259;59647;-81
2023/10/19 11:53:45;;;;;;;10.50;9.10;;;;;;;15.41;43.28;99309.42;105975;1254;60529;-83
2023/10/19 11:56:23;;;;;;;12.20;10.40;;;;;;;15.19;43.32;99308.10;106150;1260;72121;-82
2023/10/19 11:58:56;;;;;;;11.00;9.80;;;;;;;14.98;44.09;99294.88;105846;1261;69192;-81
2023/10/19 12:01:25;;;;;;;10.60;9.40;;;;;;;14.90;44.30;99290.70;106049;1260;72762;-82
2023/10/19 12:03:51;;;;;;;13.60;10.30;;;;;;;14.85;44.23;99300.08;106018;1253;59653;-82
2023/10/19 12:06:18;;;;;;;11.40;10.20;;;;;;;14.75;44.48;99291.07;105925;1260;59542;-83
2023/10/19 12:08:46;;;;;;;13.20;10.00;;;;;;;14.69;44.68;99286.63;106356;1259;72959;-77
2023/10/19 12:11:16;;;;;;;13.70;9.90;;;;;;;14.61;44.91;99279.60;106158;1259;69520;-81
2023/10/19 12:13:43;;;;;;;9.50;8.50;;;;;;;14.66;45.19;99278.20;106005;1257;72714;-82
2023/10/19 12:16:15;;;;;;;10.00;9.00;;;;;;;14.89;44.83;99278.06;106058;1260;59616;-83
2023/10/19 12:18:43;;;;;;;10.60;8.50;;;;;;;15.04;44.51;99279.69;106865;1258;59550;-79
2023/10/19 12:21:17;;;;;;;8.70;7.80;;;;;;;15.06;44.42;99285.77;107199;1256;72843;-80
2023/10/19 12:23:44;;;;;;;11.10;8.30;;;;;;;15.00;44.60;99283.36;107294;1260;72240;-79
2023/10/19 12:26:11;;;;;;;10.90;8.60;;;;;;;14.98;44.41;99281.84;106963;1257;74744;-78
2023/10/19 12:28:39;;;;;;;14.90;9.60;;;;;;;14.87;44.83;99285.55;106416;1260;60214;-78
2023/10/19 12:31:08;;;;;;;9.60;8.60;;;;;;;14.59;45.20;99283.85;106164;1258;60109;-78
2023/10/19 12:33:36;;;;;;;12.40;9.50;;;;;;;14.28;45.83;99285.88;106090;1258;74081;-78
2023/10/19 12:36:22;;;;;;;10.60;9.50;;;;;;;14.04;46.24;99279.91;105657;1260;69721;-77
2023/10/19 12:38:49;;;;;;;10.50;9.40;;;;;;;13.96;46.55;99277.42;105926;1258;72569;-78
2023/10/19 12:41:17;;;;;;;10.20;8.30;;;;;;;14.07;46.63;99273.10;106034;1253;60065;-76
2023/10/19 12:43:43;;;;;;;14.70;8.90;;;;;;;14.29;46.41;99274.00;106017;1254;59622;-79